Time;durP1;ratioP1;P1;durP2;ratioP2;P2;SDS_P1;SDS_P2;PMS_P1;PMS_P2;Temp;Humidity;BMP_temperature;BMP_pressure;BME280_temperature;BME280_humidity;BME280_pressure;Samples;Min_cycle;Max_cycle;Signal;HPM_P1;HPM_P2
2023/07/04 10:43:09;;;;;;;;;;;14.40;97.30;;;;;;6302759;22;19941;-67
2023/07/04 10:45:36;;;;;;;;;;;14.40;97.30;;;;;;6304611;22;19956;-68
2023/07/04 10:48:04;;;;;;;;;;;14.40;97.30;;;;;;6276701;22;20251;-67
2023/07/04 10:50:30;;;;;;;;;;;14.40;97.30;;;;;;6276425;22;19903;-67
2023/07/04 10:52:57;;;;;;;;;;;14.40;97.30;;;;;;6302867;22;19915;-67
2023/07/04 10:55:28;;;;;;;;;;;14.40;97.30;;;;;;6303499;22;19906;-66
2023/07/04 10:58:05;;;;;;;;;;;14.40;97.30;;;;;;6303735;22;19956;-66
2023/07/04 11:00:41;;;;;;;;;;;14.40;97.30;;;;;;6276364;22;19906;-68
2023/07/04 11:03:26;;;;;;;;;;;14.50;97.40;;;;;;6276752;22;19950;-67
2023/07/04 11:05:53;;;;;;;;;;;14.40;97.30;;;;;;6304282;22;19949;-67
2023/07/04 11:08:20;;;;;;;;;;;14.50;97.40;;;;;;6274147;22;20277;-67
2023/07/04 11:10:49;;;;;;;;;;;14.40;97.30;;;;;;6303126;22;19910;-66
2023/07/04 11:13:19;;;;;;;;;;;14.40;97.30;;;;;;6276832;22;19919;-66
2023/07/04 11:15:54;;;;;;;;;;;14.40;97.30;;;;;;6276732;22;19986;-66
2023/07/04 11:18:24;;;;;;;;;;;14.40;97.30;;;;;;6276683;22;19956;-66
2023/07/04 11:20:51;;;;;;;;;;;14.40;97.30;;;;;;6277135;22;19985;-66
2023/07/04 11:23:19;;;;;;;;;;;14.40;97.30;;;;;;6276586;22;19934;-66
2023/07/04 11:25:46;;;;;;;;;;;14.40;97.30;;;;;;6303793;22;19910;-67
2023/07/04 11:28:14;;;;;;;;;;;14.40;97.30;;;;;;6304191;22;19907;-67
2023/07/04 11:30:41;;;;;;;;;;;14.40;97.30;;;;;;6303741;22;20380;-67
2023/07/04 11:33:08;;;;;;;;;;;14.40;97.30;;;;;;6303140;22;19911;-67
2023/07/04 11:35:35;;;;;;;;;;;14.40;97.30;;;;;;6303624;22;19931;-66
2023/07/04 11:38:05;;;;;;;;;;;14.40;97.30;;;;;;6272119;22;19961;-70
2023/07/04 11:40:45;;;;;;;;;;;14.40;97.30;;;;;;6302553;22;19918;-70
2023/07/04 11:43:27;;;;;;;;;;;14.40;97.30;;;;;;6303324;22;19919;-70
2023/07/04 11:45:57;;;;;;;;;;;14.40;97.40;;;;;;6302623;22;20235;-70
2023/07/04 11:48:28;;;;;;;;;;;14.40;97.30;;;;;;6303236;22;19914;-67
2023/07/04 11:51:00;;;;;;;;;;;14.40;97.40;;;;;;6302923;22;19931;-67
2023/07/04 11:53:42;;;;;;;;;;;14.40;97.40;;;;;;6302980;22;19990;-67
2023/07/04 11:56:16;;;;;;;;;;;14.40;97.40;;;;;;6302896;22;19912;-66
2023/07/04 11:58:42;;;;;;;;;;;14.40;97.40;;;;;;6302046;22;19914;-67
2023/07/04 12:01:09;;;;;;;;;;;14.40;97.40;;;;;;6275444;22;19914;-67
2023/07/04 12:03:45;;;;;;;;;;;14.50;97.40;;;;;;6303162;22;19903;-67
2023/07/04 12:06:14;;;;;;;;;;;14.40;97.40;;;;;;6302295;22;19952;-69
2023/07/04 12:08:50;;;;;;;;;;;14.50;97.40;;;;;;6272751;22;19956;-69
2023/07/04 12:11:35;;;;;;;;;;;14.40;97.40;;;;;;6302577;22;19907;-70
2023/07/04 12:14:02;;;;;;;;;;;14.40;97.30;;;;;;6302935;22;20007;-70
2023/07/04 12:16:29;;;;;;;;;;;14.40;97.40;;;;;;6275435;22;19930;-66
2023/07/04 12:18:56;;;;;;;;;;;14.40;97.40;;;;;;6274776;22;19907;-68
2023/07/04 12:21:23;;;;;;;;;;;14.40;97.30;;;;;;6302675;22;19926;-69
2023/07/04 12:23:49;;;;;;;;;;;14.40;97.30;;;;;;6275613;22;19907;-68
2023/07/04 12:26:21;;;;;;;;;;;14.30;97.30;;;;;;6303475;22;19934;-68
2023/07/04 12:28:47;;;;;;;;;;;14.30;97.30;;;;;;6303199;22;20440;-70
2023/07/04 12:31:17;;;;;;;;;;;14.40;97.40;;;;;;6303123;22;19942;-70
2023/07/04 12:33:47;;;;;;;;;;;14.30;97.40;;;;;;6302332;22;19914;-69
2023/07/04 12:36:15;;;;;;;;;;;14.30;97.30;;;;;;6303424;22;19915;-69
2023/07/04 12:38:46;;;;;;;;;;;14.30;97.30;;;;;;6275664;22;19910;-69
2023/07/04 12:41:22;;;;;;;;;;;14.30;97.40;;;;;;6276097;22;20294;-69
2023/07/04 12:44:00;;;;;;;;;;;14.30;97.40;;;;;;6302602;22;19967;-66
2023/07/04 12:46:27;;;;;;;;;;;14.30;97.30;;;;;;6305612;22;19981;-69
2023/07/04 12:48:53;;;;;;;;;;;14.30;97.30;;;;;;6306908;22;19907;-69
2023/07/04 12:51:21;;;;;;;;;;;14.30;97.30;;;;;;6279177;22;19903;-69
2023/07/04 12:53:48;;;;;;;;;;;14.30;97.30;;;;;;6305931;22;19921;-68
2023/07/04 12:56:14;;;;;;;;;;;14.30;97.30;;;;;;6253370;22;19943;-69
2023/07/04 12:58:41;;;;;;;;;;;14.30;97.30;;;;;;6279243;22;19945;-69
2023/07/04 13:01:09;;;;;;;;;;;14.30;97.30;;;;;;6306245;22;19936;-68
2023/07/04 13:03:37;;;;;;;;;;;14.30;97.30;;;;;;6305859;22;19914;-68
2023/07/04 13:06:07;;;;;;;;;;;14.30;97.30;;;;;;6279051;22;19903;-69
2023/07/04 13:08:33;;;;;;;;;;;14.30;97.30;;;;;;6306444;22;19902;-68
2023/07/04 13:11:00;;;;;;;;;;;14.30;97.20;;;;;;6306208;22;19906;-68
2023/07/04 13:13:34;;;;;;;;;;;14.30;97.30;;;;;;6280332;22;19915;-66
2023/07/04 13:16:09;;;;;;;;;;;14.30;97.20;;;;;;6281773;22;19903;-66
2023/07/04 13:18:42;;;;;;;;;;;14.30;97.20;;;;;;6308243;22;19903;-66
2023/07/04 13:21:09;;;;;;;;;;;14.20;97.20;;;;;;6308319;22;19986;-69
2023/07/04 13:23:37;;;;;;;;;;;14.20;97.20;;;;;;6308279;22;20237;-68
2023/07/04 13:26:03;;;;;;;;;;;14.20;97.10;;;;;;6308495;22;19903;-68
2023/07/04 13:28:34;;;;;;;;;;;14.20;97.10;;;;;;6281307;22;19907;-66
2023/07/04 13:31:19;;;;;;;;;;;14.20;97.10;;;;;;6308520;22;20009;-66
2023/07/04 13:33:45;;;;;;;;;;;14.20;97.10;;;;;;6308487;22;19910;-66
2023/07/04 13:36:17;;;;;;;;;;;14.20;97.10;;;;;;6308304;22;19903;-68
2023/07/04 13:38:44;;;;;;;;;;;14.10;97.00;;;;;;6308310;22;19931;-68
2023/07/04 13:41:11;;;;;;;;;;;14.10;97.00;;;;;;6305815;22;19960;-68
2023/07/04 13:43:38;;;;;;;;;;;14.10;97.00;;;;;;6306639;22;19954;-69
2023/07/04 13:46:05;;;;;;;;;;;14.10;97.00;;;;;;6307695;22;20345;-66
2023/07/04 13:48:32;;;;;;;;;;;14.10;97.00;;;;;;6307723;22;19935;-66
2023/07/04 13:50:59;;;;;;;;;;;14.10;96.90;;;;;;6308204;22;20329;-66
2023/07/04 13:53:26;;;;;;;;;;;14.10;96.90;;;;;;6307866;22;19980;-66
2023/07/04 13:55:54;;;;;;;;;;;14.10;96.90;;;;;;6307731;22;19911;-66
2023/07/04 13:58:21;;;;;;;;;;;14.10;97.00;;;;;;6307350;22;19978;-68
2023/07/04 14:00:48;;;;;;;;;;;14.10;96.90;;;;;;6307727;22;20273;-68
2023/07/04 14:03:15;;;;;;;;;;;14.10;96.90;;;;;;6307748;22;20337;-68
2023/07/04 14:05:41;;;;;;;;;;;14.10;96.90;;;;;;6307476;22;19906;-69
2023/07/04 14:08:08;;;;;;;;;;;14.00;96.80;;;;;;6279801;22;19907;-66
2023/07/04 14:10:36;;;;;;;;;;;14.00;96.80;;;;;;6306708;22;19903;-66
2023/07/04 14:13:03;;;;;;;;;;;14.10;96.90;;;;;;6307555;22;20377;-68
2023/07/04 14:15:30;;;;;;;;;;;14.10;96.90;;;;;;6307884;22;19907;-66
2023/07/04 14:17:58;;;;;;;;;;;14.10;96.90;;;;;;6307875;22;20261;-66
2023/07/04 14:20:25;;;;;;;;;;;14.10;96.80;;;;;;6307530;22;19930;-66
2023/07/04 14:22:52;;;;;;;;;;;14.10;96.90;;;;;;6307527;22;19988;-66
2023/07/04 14:25:19;;;;;;;;;;;14.10;96.80;;;;;;6307114;22;19907;-66
2023/07/04 14:27:46;;;;;;;;;;;14.10;96.80;;;;;;6306680;22;19910;-69
2023/07/04 14:30:13;;;;;;;;;;;14.10;96.80;;;;;;6303858;22;20338;-68
2023/07/04 14:32:40;;;;;;;;;;;14.10;96.70;;;;;;6279597;22;20241;-69
2023/07/04 14:35:07;;;;;;;;;;;14.00;96.60;;;;;;6307455;22;19903;-68
2023/07/04 14:37:34;;;;;;;;;;;14.00;96.70;;;;;;6307488;22;20211;-68
2023/07/04 14:40:00;;;;;;;;;;;14.00;96.60;;;;;;6279616;22;20286;-69
2023/07/04 14:42:27;;;;;;;;;;;14.00;96.60;;;;;;6306806;22;19942;-68
2023/07/04 14:44:54;;;;;;;;;;;14.00;96.50;;;;;;6307922;22;19903;-69
2023/07/04 14:47:21;;;;;;;;;;;13.90;96.50;;;;;;6307685;22;19903;-68
2023/07/04 14:49:47;;;;;;;;;;;13.90;96.50;;;;;;6306851;22;19929;-68
2023/07/04 14:52:14;;;;;;;;;;;13.90;96.50;;;;;;6307345;22;19911;-68
2023/07/04 14:54:41;;;;;;;;;;;13.90;96.50;;;;;;6306997;22;19903;-68
2023/07/04 14:57:08;;;;;;;;;;;13.90;96.40;;;;;;6307235;22;19906;-69
2023/07/04 14:59:35;;;;;;;;;;;13.90;96.50;;;;;;6306834;22;19909;-69
2023/07/04 15:02:01;;;;;;;;;;;13.90;96.50;;;;;;6280409;22;19903;-69
2023/07/04 15:04:28;;;;;;;;;;;13.90;96.70;;;;;;6307447;22;19907;-69
2023/07/04 15:06:59;;;;;;;;;;;14.00;96.60;;;;;;6307363;22;20207;-68
2023/07/04 15:09:28;;;;;;;;;;;14.00;96.60;;;;;;6306949;22;19903;-68
2023/07/04 15:11:55;;;;;;;;;;;14.00;96.60;;;;;;6307111;22;19903;-68
2023/07/04 15:14:22;;;;;;;;;;;14.00;96.60;;;;;;6307615;22;20333;-68
2023/07/04 15:16:48;;;;;;;;;;;14.00;96.60;;;;;;6307629;22;19903;-66
2023/07/04 15:19:16;;;;;;;;;;;14.00;96.60;;;;;;6307962;22;19906;-66
2023/07/04 15:21:43;;;;;;;;;;;14.00;96.60;;;;;;6307414;22;19907;-69
2023/07/04 15:24:10;;;;;;;;;;;14.10;96.70;;;;;;6306980;22;19974;-69
2023/07/04 15:26:37;;;;;;;;;;;14.10;96.60;;;;;;6306951;22;20331;-69
2023/07/04 15:29:03;;;;;;;;;;;14.10;96.60;;;;;;6306843;22;20017;-66
2023/07/04 15:31:30;;;;;;;;;;;14.10;96.60;;;;;;6306591;22;19903;-66
2023/07/04 15:33:57;;;;;;;;;;;14.10;96.50;;;;;;6306994;22;19964;-66
2023/07/04 15:36:24;;;;;;;;;;;14.10;96.50;;;;;;6307159;22;19922;-66
2023/07/04 15:38:51;;;;;;;;;;;14.10;96.50;;;;;;6306985;22;20384;-68
2023/07/04 15:41:21;;;;;;;;;;;14.10;96.50;;;;;;6306542;22;19926;-69
2023/07/04 15:43:48;;;;;;;;;;;14.00;96.40;;;;;;6306853;22;19911;-69
2023/07/04 15:46:15;;;;;;;;;;;14.10;96.50;;;;;;6307439;22;19907;-69
2023/07/04 15:48:42;;;;;;;;;;;14.10;96.40;;;;;;6307197;22;19913;-68
2023/07/04 15:51:10;;;;;;;;;;;14.00;96.30;;;;;;6279617;22;19903;-69
2023/07/04 15:53:37;;;;;;;;;;;14.00;96.30;;;;;;6279366;22;19917;-68
2023/07/04 15:56:05;;;;;;;;;;;14.00;96.30;;;;;;6306978;22;20272;-66
2023/07/04 15:58:32;;;;;;;;;;;13.90;96.20;;;;;;6306335;22;20332;-68
2023/07/04 16:00:59;;;;;;;;;;;14.00;96.30;;;;;;6306655;22;19911;-68
2023/07/04 16:03:26;;;;;;;;;;;14.00;96.30;;;;;;6306824;22;19903;-68
2023/07/04 16:05:55;;;;;;;;;;;13.90;96.10;;;;;;6306176;22;19918;-68
2023/07/04 16:08:22;;;;;;;;;;;13.90;96.10;;;;;;6305708;22;19910;-66
2023/07/04 16:10:53;;;;;;;;;;;13.80;96.00;;;;;;6305513;22;19907;-66
2023/07/04 16:13:20;;;;;;;;;;;13.80;95.90;;;;;;6279443;22;19911;-66
2023/07/04 16:15:47;;;;;;;;;;;13.80;95.90;;;;;;6307553;22;19907;-67
2023/07/04 16:18:14;;;;;;;;;;;13.80;95.90;;;;;;6306649;22;19921;-66
2023/07/04 16:20:42;;;;;;;;;;;13.80;95.90;;;;;;6305858;22;19934;-67
2023/07/04 16:23:08;;;;;;;;;;;13.70;95.90;;;;;;6305973;22;20072;-66
2023/07/04 16:25:35;;;;;;;;;;;13.70;95.80;;;;;;6306432;22;19903;-67
2023/07/04 16:28:02;;;;;;;;;;;13.70;95.90;;;;;;6305938;22;19930;-66
2023/07/04 16:30:29;;;;;;;;;;;13.70;95.90;;;;;;6306418;22;19956;-66
2023/07/04 16:32:55;;;;;;;;;;;13.70;95.90;;;;;;6279579;22;19920;-66
2023/07/04 16:35:22;;;;;;;;;;;13.80;96.00;;;;;;6306968;22;19903;-67
2023/07/04 16:37:49;;;;;;;;;;;13.70;95.90;;;;;;6306541;22;19903;-67
2023/07/04 16:40:16;;;;;;;;;;;13.80;95.90;;;;;;6305539;22;19903;-66
2023/07/04 16:42:42;;;;;;;;;;;13.70;95.80;;;;;;6305635;22;20334;-66
2023/07/04 16:45:09;;;;;;;;;;;13.70;95.80;;;;;;6305630;22;19986;-66
2023/07/04 16:47:36;;;;;;;;;;;13.70;95.70;;;;;;6306012;22;19903;-66
2023/07/04 16:50:03;;;;;;;;;;;13.70;95.70;;;;;;6306525;22;19930;-67
2023/07/04 16:52:30;;;;;;;;;;;13.70;95.70;;;;;;6306065;22;20016;-66
2023/07/04 16:54:57;;;;;;;;;;;13.70;95.60;;;;;;6306551;22;19903;-66
2023/07/04 16:57:23;;;;;;;;;;;13.70;95.60;;;;;;6306229;22;20211;-67
2023/07/04 16:59:50;;;;;;;;;;;13.70;95.60;;;;;;6306150;22;19910;-66
2023/07/04 17:02:17;;;;;;;;;;;13.70;95.60;;;;;;6306561;22;20311;-66
2023/07/04 17:04:44;;;;;;;;;;;13.60;95.60;;;;;;6306570;22;19903;-66
2023/07/04 17:07:11;;;;;;;;;;;13.60;95.60;;;;;;6305964;22;19914;-66
2023/07/04 17:09:38;;;;;;;;;;;13.60;95.50;;;;;;6306433;22;20314;-66
2023/07/04 17:12:05;;;;;;;;;;;13.60;95.60;;;;;;6306070;22;19907;-66
2023/07/04 17:14:31;;;;;;;;;;;13.60;95.60;;;;;;6306524;22;19911;-66
2023/07/04 17:16:58;;;;;;;;;;;13.60;95.50;;;;;;6306576;22;19907;-66
2023/07/04 17:19:25;;;;;;;;;;;13.60;95.60;;;;;;6306300;22;19970;-66
2023/07/04 17:21:52;;;;;;;;;;;13.60;95.60;;;;;;6306405;22;19929;-66
2023/07/04 17:24:18;;;;;;;;;;;13.70;95.60;;;;;;6306326;22;19977;-66
2023/07/04 17:26:45;;;;;;;;;;;13.70;95.60;;;;;;6306227;22;19907;-66
2023/07/04 17:29:12;;;;;;;;;;;13.70;95.60;;;;;;6306013;22;19902;-66
2023/07/04 17:31:39;;;;;;;;;;;13.70;95.70;;;;;;6305819;22;19903;-66
2023/07/04 17:34:05;;;;;;;;;;;13.70;95.60;;;;;;6306098;22;19911;-67
2023/07/04 17:36:33;;;;;;;;;;;13.70;95.60;;;;;;6306544;22;19907;-66
2023/07/04 17:38:59;;;;;;;;;;;13.70;95.70;;;;;;6306670;22;19911;-66
2023/07/04 17:41:26;;;;;;;;;;;13.70;95.70;;;;;;6306405;22;19941;-66
2023/07/04 17:43:53;;;;;;;;;;;13.70;95.70;;;;;;6306141;22;19933;-66
2023/07/04 17:46:20;;;;;;;;;;;13.70;95.60;;;;;;6306041;22;19910;-66
2023/07/04 17:48:47;;;;;;;;;;;13.70;95.60;;;;;;6305447;22;19903;-66
2023/07/04 17:51:15;;;;;;;;;;;13.70;95.70;;;;;;6305242;22;19903;-66
2023/07/04 17:53:41;;;;;;;;;;;13.70;95.70;;;;;;6304776;22;20245;-66
2023/07/04 17:56:09;;;;;;;;;;;13.70;95.60;;;;;;6305394;22;19954;-66
2023/07/04 17:58:36;;;;;;;;;;;13.70;95.60;;;;;;6306439;22;19956;-66
2023/07/04 18:01:06;;;;;;;;;;;13.70;95.60;;;;;;6307841;22;20314;-66
2023/07/04 18:03:34;;;;;;;;;;;13.70;95.50;;;;;;6307137;22;20210;-66
2023/07/04 18:06:04;;;;;;;;;;;13.70;95.50;;;;;;6308009;22;19914;-67
2023/07/04 18:08:31;;;;;;;;;;;13.70;95.40;;;;;;6308064;22;19907;-66
2023/07/04 18:10:58;;;;;;;;;;;13.70;95.50;;;;;;6306425;22;19998;-66
2023/07/04 18:13:24;;;;;;;;;;;13.70;95.50;;;;;;6307343;22;20239;-66
2023/07/04 18:15:51;;;;;;;;;;;13.70;95.50;;;;;;6307728;22;19934;-66
2023/07/04 18:18:19;;;;;;;;;;;13.70;95.50;;;;;;6307220;22;19907;-67
2023/07/04 18:20:46;;;;;;;;;;;13.70;95.60;;;;;;6307240;22;19910;-66
2023/07/04 18:23:12;;;;;;;;;;;13.70;95.60;;;;;;6306878;22;19907;-66
2023/07/04 18:25:39;;;;;;;;;;;13.70;95.50;;;;;;6308033;22;19907;-66
2023/07/04 18:28:06;;;;;;;;;;;13.70;95.40;;;;;;6307219;22;20215;-66
2023/07/04 18:30:37;;;;;;;;;;;13.60;95.40;;;;;;6307177;22;19903;-66
2023/07/04 18:33:03;;;;;;;;;;;13.70;95.40;;;;;;6307104;22;19946;-67
2023/07/04 18:35:30;;;;;;;;;;;13.70;95.40;;;;;;6307291;22;19985;-66
2023/07/04 18:37:57;;;;;;;;;;;13.70;95.40;;;;;;6306702;22;19903;-66
2023/07/04 18:40:24;;;;;;;;;;;13.70;95.50;;;;;;6307621;22;19903;-67
2023/07/04 18:42:51;;;;;;;;;;;13.70;95.40;;;;;;6306831;22;19915;-67
2023/07/04 18:45:17;;;;;;;;;;;13.70;95.40;;;;;;6307104;22;19952;-67
2023/07/04 18:47:47;;;;;;;;;;;13.60;95.40;;;;;;6307195;22;19909;-66
2023/07/04 18:50:15;;;;;;;;;;;13.70;95.50;;;;;;6305825;22;19914;-67
2023/07/04 18:52:42;;;;;;;;;;;13.70;95.40;;;;;;6306955;22;19925;-67
2023/07/04 18:55:09;;;;;;;;;;;13.70;95.30;;;;;;6307176;22;20381;-67
2023/07/04 18:57:36;;;;;;;;;;;13.70;95.30;;;;;;6306998;22;19903;-68
2023/07/04 19:00:03;;;;;;;;;;;13.60;95.30;;;;;;6306748;22;19939;-67
2023/07/04 19:02:30;;;;;;;;;;;13.60;95.30;;;;;;6307573;22;20298;-67
2023/07/04 19:04:56;;;;;;;;;;;13.70;95.20;;;;;;6306541;22;19903;-67
2023/07/04 19:07:23;;;;;;;;;;;13.70;95.30;;;;;;6307378;22;19903;-68
2023/07/04 19:09:50;;;;;;;;;;;13.60;95.30;;;;;;6307060;22;19910;-68
2023/07/04 19:12:17;;;;;;;;;;;13.70;95.40;;;;;;6306417;22;19903;-68
2023/07/04 19:14:43;;;;;;;;;;;13.70;95.40;;;;;;6307629;22;19942;-68
2023/07/04 19:17:10;;;;;;;;;;;13.60;95.30;;;;;;6307637;22;19914;-68
2023/07/04 19:19:38;;;;;;;;;;;13.60;95.20;;;;;;6307353;22;19913;-68
2023/07/04 19:22:06;;;;;;;;;;;13.60;95.20;;;;;;6307470;22;19957;-68
2023/07/04 19:24:33;;;;;;;;;;;13.60;95.20;;;;;;6307249;22;20207;-67
2023/07/04 19:27:00;;;;;;;;;;;13.60;95.10;;;;;;6306940;22;19993;-67
2023/07/04 19:29:28;;;;;;;;;;;13.60;95.20;;;;;;6306785;22;19907;-67
2023/07/04 19:31:58;;;;;;;;;;;13.60;95.10;;;;;;6306955;22;20327;-67
2023/07/04 19:34:25;;;;;;;;;;;13.60;95.10;;;;;;6307261;22;20290;-67
2023/07/04 19:36:53;;;;;;;;;;;13.60;95.10;;;;;;6280090;22;19909;-67
2023/07/04 19:39:20;;;;;;;;;;;13.60;95.20;;;;;;6280728;22;19907;-67
2023/07/04 19:41:47;;;;;;;;;;;13.60;95.30;;;;;;6307305;22;19915;-67
2023/07/04 19:44:13;;;;;;;;;;;13.60;95.20;;;;;;6307606;22;19907;-67
2023/07/04 19:46:40;;;;;;;;;;;13.60;95.10;;;;;;6306860;22;19994;-67
2023/07/04 19:49:07;;;;;;;;;;;13.60;95.20;;;;;;6306816;22;19907;-67
2023/07/04 19:51:34;;;;;;;;;;;13.60;95.10;;;;;;6306575;22;19910;-67
2023/07/04 19:54:03;;;;;;;;;;;13.60;95.10;;;;;;6279785;22;19993;-67
2023/07/04 19:56:30;;;;;;;;;;;13.60;95.20;;;;;;6306860;22;19934;-67
2023/07/04 19:58:57;;;;;;;;;;;13.60;95.10;;;;;;6306725;22;19903;-67
2023/07/04 20:01:26;;;;;;;;;;;13.60;95.20;;;;;;6306779;22;20321;-67
2023/07/04 20:03:53;;;;;;;;;;;13.60;95.10;;;;;;6280106;22;19906;-67
2023/07/04 20:06:20;;;;;;;;;;;13.60;95.10;;;;;;6306783;22;19903;-68
2023/07/04 20:08:47;;;;;;;;;;;13.60;95.00;;;;;;6279333;22;19903;-67
2023/07/04 20:11:14;;;;;;;;;;;13.60;95.00;;;;;;6306121;22;20219;-67
2023/07/04 20:13:42;;;;;;;;;;;13.50;95.10;;;;;;6307536;22;20037;-67
2023/07/04 20:16:13;;;;;;;;;;;13.50;95.10;;;;;;6306792;22;19914;-67
2023/07/04 20:18:40;;;;;;;;;;;13.50;95.20;;;;;;6306829;22;19910;-67
2023/07/04 20:21:06;;;;;;;;;;;13.60;95.20;;;;;;6306246;22;19935;-67
2023/07/04 20:23:35;;;;;;;;;;;13.60;95.20;;;;;;6305607;22;20604;-67
2023/07/04 20:26:02;;;;;;;;;;;13.50;95.10;;;;;;6306461;22;19907;-67
2023/07/04 20:28:28;;;;;;;;;;;13.60;95.20;;;;;;6306262;22;19907;-67
2023/07/04 20:30:56;;;;;;;;;;;13.50;95.20;;;;;;6307044;22;19903;-67
2023/07/04 20:33:23;;;;;;;;;;;13.60;95.20;;;;;;6306115;22;19911;-67
2023/07/04 20:35:50;;;;;;;;;;;13.60;95.20;;;;;;6306141;22;19903;-67
2023/07/04 20:38:16;;;;;;;;;;;13.60;95.10;;;;;;6306734;22;19903;-68
2023/07/04 20:40:45;;;;;;;;;;;13.50;95.10;;;;;;6307436;22;20360;-67
2023/07/04 20:43:13;;;;;;;;;;;13.50;95.10;;;;;;6306460;22;19907;-67
2023/07/04 20:45:39;;;;;;;;;;;13.50;95.10;;;;;;6306460;22;19981;-67
2023/07/04 20:48:07;;;;;;;;;;;13.50;95.00;;;;;;6305308;22;19952;-67
2023/07/04 20:50:33;;;;;;;;;;;13.50;95.00;;;;;;6306788;22;20314;-67
2023/07/04 20:53:03;;;;;;;;;;;13.50;95.10;;;;;;6305854;22;19974;-67
2023/07/04 20:55:29;;;;;;;;;;;13.50;95.10;;;;;;6306181;22;19903;-67
2023/07/04 20:57:56;;;;;;;;;;;13.50;95.00;;;;;;6305892;22;19909;-67
2023/07/04 21:00:23;;;;;;;;;;;13.50;95.10;;;;;;6306388;22;19950;-67
2023/07/04 21:02:50;;;;;;;;;;;13.50;95.10;;;;;;6307077;22;19903;-67
2023/07/04 21:05:17;;;;;;;;;;;13.50;95.10;;;;;;6307127;22;19910;-67
2023/07/04 21:07:46;;;;;;;;;;;13.50;95.00;;;;;;6306820;22;19907;-67
2023/07/04 21:10:13;;;;;;;;;;;13.50;95.00;;;;;;6306247;22;20241;-67
2023/07/04 21:12:40;;;;;;;;;;;13.50;95.00;;;;;;6306207;22;19903;-67
2023/07/04 21:15:07;;;;;;;;;;;13.40;95.10;;;;;;6306388;22;19903;-68
2023/07/04 21:17:34;;;;;;;;;;;13.50;95.00;;;;;;6306341;22;19910;-68
2023/07/04 21:20:01;;;;;;;;;;;13.50;95.00;;;;;;6306404;22;19914;-67
2023/07/04 21:22:27;;;;;;;;;;;13.50;95.10;;;;;;6306658;22;19942;-67
2023/07/04 21:24:55;;;;;;;;;;;13.40;95.00;;;;;;6306709;22;19903;-67
2023/07/04 21:27:22;;;;;;;;;;;13.50;95.10;;;;;;6305613;22;19927;-68
2023/07/04 21:29:52;;;;;;;;;;;13.50;95.10;;;;;;6279347;22;19910;-67
2023/07/04 21:32:19;;;;;;;;;;;13.50;95.10;;;;;;6306619;22;19909;-67
2023/07/04 21:34:46;;;;;;;;;;;13.50;95.00;;;;;;6307417;22;19918;-68
2023/07/04 21:37:13;;;;;;;;;;;13.50;95.00;;;;;;6308894;22;19929;-67
2023/07/04 21:39:43;;;;;;;;;;;13.50;95.00;;;;;;6308464;22;19933;-67
2023/07/04 21:42:10;;;;;;;;;;;13.50;95.00;;;;;;6308060;22;19961;-67
2023/07/04 21:44:37;;;;;;;;;;;13.50;95.00;;;;;;6309171;22;19907;-67
2023/07/04 21:47:03;;;;;;;;;;;13.50;95.10;;;;;;6307759;22;19974;-67
2023/07/04 21:49:30;;;;;;;;;;;13.50;95.00;;;;;;6308643;22;19903;-65
2023/07/04 21:51:57;;;;;;;;;;;13.50;95.00;;;;;;6308093;22;20261;-66
2023/07/04 21:54:24;;;;;;;;;;;13.50;95.00;;;;;;6279515;22;19911;-66
2023/07/04 21:56:50;;;;;;;;;;;13.50;95.00;;;;;;6308462;22;19910;-65
2023/07/04 21:59:17;;;;;;;;;;;13.50;95.10;;;;;;6308322;22;20214;-66
2023/07/04 22:01:44;;;;;;;;;;;13.50;95.00;;;;;;6281419;22;19903;-66
2023/07/04 22:04:11;;;;;;;;;;;13.50;95.00;;;;;;6308604;22;19914;-66
2023/07/04 22:06:38;;;;;;;;;;;13.50;95.00;;;;;;6308372;22;19909;-66
2023/07/04 22:09:04;;;;;;;;;;;13.50;95.00;;;;;;6308446;22;19903;-66
2023/07/04 22:11:31;;;;;;;;;;;13.50;95.00;;;;;;6308566;22;19977;-66
2023/07/04 22:13:58;;;;;;;;;;;13.60;95.00;;;;;;6308381;22;20320;-66
2023/07/04 22:16:25;;;;;;;;;;;13.50;94.90;;;;;;6308177;22;19903;-66
2023/07/04 22:18:51;;;;;;;;;;;13.50;94.80;;;;;;6308103;22;20016;-66
2023/07/04 22:21:18;;;;;;;;;;;13.50;94.90;;;;;;6307968;22;19941;-66
2023/07/04 22:23:46;;;;;;;;;;;13.50;94.80;;;;;;6308304;22;19922;-66
2023/07/04 22:26:13;;;;;;;;;;;13.50;94.80;;;;;;6281284;22;19914;-66
2023/07/04 22:28:40;;;;;;;;;;;13.50;94.80;;;;;;6308336;22;19907;-66
2023/07/04 22:31:07;;;;;;;;;;;13.50;94.80;;;;;;6308028;22;19910;-66
2023/07/04 22:33:37;;;;;;;;;;;13.50;94.90;;;;;;6281393;22;19915;-68
2023/07/04 22:36:03;;;;;;;;;;;13.50;94.90;;;;;;6308052;22;19903;-66
2023/07/04 22:38:30;;;;;;;;;;;13.50;94.80;;;;;;6307920;22;19907;-66
2023/07/04 22:40:57;;;;;;;;;;;13.60;94.90;;;;;;6308186;22;19907;-65
